sensor_id;sensor_type;location;lat;lon;timestamp;P1;durP1;ratioP1;P2;durP2;ratioP2
47167;SDS011;32931;47.778;17.806;2023-10-31T00:01:25;12.50;;;4.70;;
47167;SDS011;32931;47.778;17.806;2023-10-31T00:03:51;11.95;;;4.40;;
47167;SDS011;32931;47.778;17.806;2023-10-31T00:06:17;11.48;;;5.18;;
47167;SDS011;32931;47.778;17.806;2023-10-31T00:08:43;13.55;;;5.07;;
47167;SDS011;32931;47.778;17.806;2023-10-31T00:11:09;14.50;;;4.90;;
47167;SDS011;32931;47.778;17.806;2023-10-31T00:13:36;13.20;;;5.00;;
47167;SDS011;32931;47.778;17.806;2023-10-31T00:16:02;10.93;;;5.00;;
47167;SDS011;32931;47.778;17.806;2023-10-31T00:18:28;12.77;;;4.57;;
47167;SDS011;32931;47.778;17.806;2023-10-31T00:20:55;18.65;;;5.18;;
47167;SDS011;32931;47.778;17.806;2023-10-31T00:23:22;18.92;;;4.70;;
47167;SDS011;32931;47.778;17.806;2023-10-31T00:25:48;9.93;;;4.85;;
47167;SDS011;32931;47.778;17.806;2023-10-31T00:28:14;12.95;;;5.70;;
47167;SDS011;32931;47.778;17.806;2023-10-31T00:30:40;12.65;;;5.53;;
47167;SDS011;32931;47.778;17.806;2023-10-31T00:33:06;11.05;;;4.72;;
47167;SDS011;32931;47.778;17.806;2023-10-31T00:35:32;13.38;;;5.38;;
47167;SDS011;32931;47.778;17.806;2023-10-31T00:37:58;11.18;;;4.60;;
47167;SDS011;32931;47.778;17.806;2023-10-31T00:40:24;9.60;;;5.07;;
47167;SDS011;32931;47.778;17.806;2023-10-31T00:42:50;17.08;;;5.20;;
47167;SDS011;32931;47.778;17.806;2023-10-31T00:45:17;14.93;;;5.32;;
47167;SDS011;32931;47.778;17.806;2023-10-31T00:47:43;13.65;;;5.20;;
47167;SDS011;32931;47.778;17.806;2023-10-31T00:50:09;14.35;;;5.32;;
47167;SDS011;32931;47.778;17.806;2023-10-31T00:52:35;17.90;;;5.60;;
47167;SDS011;32931;47.778;17.806;2023-10-31T00:55:02;12.07;;;5.28;;
47167;SDS011;32931;47.778;17.806;2023-10-31T00:57:28;12.25;;;5.15;;
47167;SDS011;32931;47.778;17.806;2023-10-31T00:59:55;11.52;;;5.30;;
47167;SDS011;32931;47.778;17.806;2023-10-31T01:02:21;12.40;;;5.40;;
47167;SDS011;32931;47.778;17.806;2023-10-31T01:04:48;19.80;;;5.85;;
47167;SDS011;32931;47.778;17.806;2023-10-31T01:07:14;16.25;;;6.15;;
47167;SDS011;32931;47.778;17.806;2023-10-31T01:09:42;14.57;;;6.13;;
47167;SDS011;32931;47.778;17.806;2023-10-31T01:12:10;15.38;;;6.05;;
47167;SDS011;32931;47.778;17.806;2023-10-31T01:14:36;15.13;;;6.30;;
47167;SDS011;32931;47.778;17.806;2023-10-31T01:17:02;13.82;;;6.22;;
47167;SDS011;32931;47.778;17.806;2023-10-31T01:19:29;15.52;;;5.93;;
47167;SDS011;32931;47.778;17.806;2023-10-31T01:21:55;16.60;;;6.18;;
47167;SDS011;32931;47.778;17.806;2023-10-31T01:24:21;15.73;;;6.07;;
47167;SDS011;32931;47.778;17.806;2023-10-31T01:26:48;14.98;;;5.57;;
47167;SDS011;32931;47.778;17.806;2023-10-31T01:29:15;22.98;;;6.60;;
47167;SDS011;32931;47.778;17.806;2023-10-31T01:31:41;18.33;;;6.10;;
47167;SDS011;32931;47.778;17.806;2023-10-31T01:34:07;13.63;;;6.00;;
47167;SDS011;32931;47.778;17.806;2023-10-31T01:36:34;14.98;;;6.35;;
47167;SDS011;32931;47.778;17.806;2023-10-31T01:39:00;25.27;;;7.15;;
47167;SDS011;32931;47.778;17.806;2023-10-31T01:41:26;13.07;;;6.32;;
47167;SDS011;32931;47.778;17.806;2023-10-31T01:43:52;16.08;;;5.47;;
47167;SDS011;32931;47.778;17.806;2023-10-31T01:46:18;14.30;;;6.55;;
47167;SDS011;32931;47.778;17.806;2023-10-31T01:48:45;22.63;;;6.47;;
47167;SDS011;32931;47.778;17.806;2023-10-31T01:51:11;17.63;;;6.75;;
47167;SDS011;32931;47.778;17.806;2023-10-31T01:53:37;16.13;;;6.40;;
47167;SDS011;32931;47.778;17.806;2023-10-31T01:56:05;15.23;;;6.18;;
47167;SDS011;32931;47.778;17.806;2023-10-31T01:58:35;24.95;;;6.35;;
47167;SDS011;32931;47.778;17.806;2023-10-31T02:01:03;14.73;;;6.35;;
47167;SDS011;32931;47.778;17.806;2023-10-31T02:03:30;13.30;;;5.93;;
47167;SDS011;32931;47.778;17.806;2023-10-31T02:05:57;16.27;;;5.75;;
47167;SDS011;32931;47.778;17.806;2023-10-31T02:08:24;13.30;;;5.82;;
47167;SDS011;32931;47.778;17.806;2023-10-31T02:10:50;14.15;;;5.82;;
47167;SDS011;32931;47.778;17.806;2023-10-31T02:13:17;21.10;;;6.22;;
47167;SDS011;32931;47.778;17.806;2023-10-31T02:15:44;16.42;;;6.43;;
47167;SDS011;32931;47.778;17.806;2023-10-31T02:18:10;15.15;;;6.18;;
47167;SDS011;32931;47.778;17.806;2023-10-31T02:20:37;15.63;;;6.47;;
47167;SDS011;32931;47.778;17.806;2023-10-31T02:23:03;13.25;;;6.15;;
47167;SDS011;32931;47.778;17.806;2023-10-31T02:25:30;12.48;;;5.80;;
47167;SDS011;32931;47.778;17.806;2023-10-31T02:27:56;21.63;;;6.97;;
47167;SDS011;32931;47.778;17.806;2023-10-31T02:30:23;14.32;;;6.95;;
47167;SDS011;32931;47.778;17.806;2023-10-31T02:32:50;17.52;;;6.65;;
47167;SDS011;32931;47.778;17.806;2023-10-31T02:35:16;17.10;;;6.50;;
47167;SDS011;32931;47.778;17.806;2023-10-31T02:37:44;16.13;;;6.97;;
47167;SDS011;32931;47.778;17.806;2023-10-31T02:40:14;18.00;;;6.45;;
47167;SDS011;32931;47.778;17.806;2023-10-31T02:42:40;12.13;;;6.53;;
47167;SDS011;32931;47.778;17.806;2023-10-31T02:45:06;18.50;;;6.65;;
47167;SDS011;32931;47.778;17.806;2023-10-31T02:47:33;17.70;;;6.68;;
47167;SDS011;32931;47.778;17.806;2023-10-31T02:49:59;18.60;;;6.50;;
47167;SDS011;32931;47.778;17.806;2023-10-31T02:52:25;18.13;;;6.40;;
47167;SDS011;32931;47.778;17.806;2023-10-31T02:54:51;20.95;;;7.00;;
47167;SDS011;32931;47.778;17.806;2023-10-31T02:57:17;18.80;;;6.72;;
47167;SDS011;32931;47.778;17.806;2023-10-31T02:59:43;16.40;;;6.60;;
47167;SDS011;32931;47.778;17.806;2023-10-31T03:02:10;17.05;;;6.57;;
47167;SDS011;32931;47.778;17.806;2023-10-31T03:04:37;16.70;;;6.80;;
47167;SDS011;32931;47.778;17.806;2023-10-31T03:07:03;21.63;;;7.05;;
47167;SDS011;32931;47.778;17.806;2023-10-31T03:09:29;23.13;;;6.72;;
47167;SDS011;32931;47.778;17.806;2023-10-31T03:11:55;16.00;;;6.82;;
47167;SDS011;32931;47.778;17.806;2023-10-31T03:14:21;17.77;;;6.63;;
47167;SDS011;32931;47.778;17.806;2023-10-31T03:16:48;18.58;;;6.85;;
47167;SDS011;32931;47.778;17.806;2023-10-31T03:19:14;24.83;;;8.13;;
47167;SDS011;32931;47.778;17.806;2023-10-31T03:21:40;24.15;;;7.25;;
47167;SDS011;32931;47.778;17.806;2023-10-31T03:24:06;15.27;;;6.72;;
47167;SDS011;32931;47.778;17.806;2023-10-31T03:26:32;14.98;;;6.25;;
47167;SDS011;32931;47.778;17.806;2023-10-31T03:28:58;23.00;;;7.90;;
47167;SDS011;32931;47.778;17.806;2023-10-31T03:31:25;16.10;;;7.07;;
47167;SDS011;32931;47.778;17.806;2023-10-31T03:33:51;12.98;;;6.05;;
47167;SDS011;32931;47.778;17.806;2023-10-31T03:36:18;18.13;;;7.40;;
47167;SDS011;32931;47.778;17.806;2023-10-31T03:38:45;17.42;;;6.97;;
47167;SDS011;32931;47.778;17.806;2023-10-31T03:41:12;16.50;;;6.22;;
47167;SDS011;32931;47.778;17.806;2023-10-31T03:43:38;25.65;;;7.25;;
47167;SDS011;32931;47.778;17.806;2023-10-31T03:46:04;12.88;;;6.25;;
47167;SDS011;32931;47.778;17.806;2023-10-31T03:48:31;24.40;;;6.05;;
47167;SDS011;32931;47.778;17.806;2023-10-31T03:50:57;17.15;;;6.55;;
47167;SDS011;32931;47.778;17.806;2023-10-31T03:53:23;16.33;;;6.38;;
47167;SDS011;32931;47.778;17.806;2023-10-31T03:55:49;17.52;;;6.40;;
47167;SDS011;32931;47.778;17.806;2023-10-31T03:58:15;16.77;;;6.65;;
47167;SDS011;32931;47.778;17.806;2023-10-31T04:00:41;16.83;;;6.13;;
47167;SDS011;32931;47.778;17.806;2023-10-31T04:03:08;20.92;;;6.38;;
47167;SDS011;32931;47.778;17.806;2023-10-31T04:05:34;13.20;;;5.72;;
47167;SDS011;32931;47.778;17.806;2023-10-31T04:08:01;14.45;;;5.88;;
47167;SDS011;32931;47.778;17.806;2023-10-31T04:10:27;18.33;;;5.90;;
47167;SDS011;32931;47.778;17.806;2023-10-31T04:12:53;18.63;;;5.95;;
47167;SDS011;32931;47.778;17.806;2023-10-31T04:15:19;17.70;;;6.18;;
47167;SDS011;32931;47.778;17.806;2023-10-31T04:17:46;15.95;;;6.30;;
47167;SDS011;32931;47.778;17.806;2023-10-31T04:20:12;13.88;;;5.72;;
47167;SDS011;32931;47.778;17.806;2023-10-31T04:22:38;14.57;;;6.25;;
47167;SDS011;32931;47.778;17.806;2023-10-31T04:25:04;17.05;;;5.40;;
47167;SDS011;32931;47.778;17.806;2023-10-31T04:27:30;17.05;;;5.78;;
47167;SDS011;32931;47.778;17.806;2023-10-31T04:29:57;12.55;;;5.22;;
47167;SDS011;32931;47.778;17.806;2023-10-31T04:32:23;14.00;;;5.70;;
47167;SDS011;32931;47.778;17.806;2023-10-31T04:34:49;13.13;;;5.45;;
47167;SDS011;32931;47.778;17.806;2023-10-31T04:37:16;17.00;;;5.57;;
47167;SDS011;32931;47.778;17.806;2023-10-31T04:39:42;11.75;;;5.30;;
47167;SDS011;32931;47.778;17.806;2023-10-31T04:42:08;12.30;;;5.78;;
47167;SDS011;32931;47.778;17.806;2023-10-31T04:44:34;16.17;;;5.72;;
47167;SDS011;32931;47.778;17.806;2023-10-31T04:47:00;13.82;;;5.63;;
47167;SDS011;32931;47.778;17.806;2023-10-31T04:49:27;18.08;;;6.03;;
47167;SDS011;32931;47.778;17.806;2023-10-31T04:51:53;14.02;;;5.97;;
47167;SDS011;32931;47.778;17.806;2023-10-31T04:54:19;23.50;;;5.90;;
47167;SDS011;32931;47.778;17.806;2023-10-31T04:56:46;16.05;;;5.97;;
47167;SDS011;32931;47.778;17.806;2023-10-31T04:59:13;12.75;;;5.35;;
47167;SDS011;32931;47.778;17.806;2023-10-31T05:01:39;16.17;;;6.22;;
47167;SDS011;32931;47.778;17.806;2023-10-31T05:04:06;16.10;;;5.95;;
47167;SDS011;32931;47.778;17.806;2023-10-31T05:06:32;23.75;;;6.07;;
47167;SDS011;32931;47.778;17.806;2023-10-31T05:08:58;25.20;;;6.00;;
47167;SDS011;32931;47.778;17.806;2023-10-31T05:11:24;18.55;;;6.05;;
47167;SDS011;32931;47.778;17.806;2023-10-31T05:13:50;16.77;;;6.57;;
47167;SDS011;32931;47.778;17.806;2023-10-31T05:16:16;11.52;;;5.30;;
47167;SDS011;32931;47.778;17.806;2023-10-31T05:18:42;10.60;;;5.20;;
47167;SDS011;32931;47.778;17.806;2023-10-31T05:21:08;53.22;;;7.30;;
47167;SDS011;32931;47.778;17.806;2023-10-31T05:23:35;26.02;;;6.38;;
47167;SDS011;32931;47.778;17.806;2023-10-31T05:26:01;15.05;;;5.95;;
47167;SDS011;32931;47.778;17.806;2023-10-31T05:28:30;16.08;;;6.07;;
47167;SDS011;32931;47.778;17.806;2023-10-31T05:30:56;14.73;;;5.82;;
47167;SDS011;32931;47.778;17.806;2023-10-31T05:33:23;10.57;;;5.65;;
47167;SDS011;32931;47.778;17.806;2023-10-31T05:35:49;18.77;;;5.55;;
47167;SDS011;32931;47.778;17.806;2023-10-31T05:38:16;14.40;;;6.38;;
47167;SDS011;32931;47.778;17.806;2023-10-31T05:40:42;17.08;;;6.22;;
47167;SDS011;32931;47.778;17.806;2023-10-31T05:43:08;16.65;;;5.95;;
47167;SDS011;32931;47.778;17.806;2023-10-31T05:45:34;12.63;;;5.50;;
47167;SDS011;32931;47.778;17.806;2023-10-31T05:48:00;12.98;;;5.35;;
47167;SDS011;32931;47.778;17.806;2023-10-31T05:50:27;14.90;;;5.22;;
47167;SDS011;32931;47.778;17.806;2023-10-31T05:52:53;14.40;;;6.00;;
47167;SDS011;32931;47.778;17.806;2023-10-31T05:55:19;16.80;;;6.00;;
47167;SDS011;32931;47.778;17.806;2023-10-31T05:57:45;16.33;;;5.10;;
47167;SDS011;32931;47.778;17.806;2023-10-31T06:00:11;22.65;;;5.00;;
47167;SDS011;32931;47.778;17.806;2023-10-31T06:02:37;21.25;;;6.03;;
47167;SDS011;32931;47.778;17.806;2023-10-31T06:05:04;15.65;;;5.07;;
47167;SDS011;32931;47.778;17.806;2023-10-31T06:07:30;15.90;;;5.05;;
47167;SDS011;32931;47.778;17.806;2023-10-31T06:09:57;12.00;;;4.85;;
47167;SDS011;32931;47.778;17.806;2023-10-31T06:12:23;11.90;;;4.93;;
47167;SDS011;32931;47.778;17.806;2023-10-31T06:14:49;15.65;;;5.20;;
47167;SDS011;32931;47.778;17.806;2023-10-31T06:17:15;13.30;;;5.35;;
47167;SDS011;32931;47.778;17.806;2023-10-31T06:19:41;13.27;;;5.38;;
47167;SDS011;32931;47.778;17.806;2023-10-31T06:22:11;16.55;;;5.63;;
47167;SDS011;32931;47.778;17.806;2023-10-31T06:24:38;13.52;;;5.38;;
47167;SDS011;32931;47.778;17.806;2023-10-31T06:27:05;13.38;;;5.90;;
47167;SDS011;32931;47.778;17.806;2023-10-31T06:29:31;22.38;;;5.38;;
47167;SDS011;32931;47.778;17.806;2023-10-31T06:31:57;23.50;;;5.60;;
47167;SDS011;32931;47.778;17.806;2023-10-31T06:34:23;13.65;;;4.68;;
47167;SDS011;32931;47.778;17.806;2023-10-31T06:36:51;16.52;;;5.38;;
47167;SDS011;32931;47.778;17.806;2023-10-31T06:39:17;15.07;;;5.05;;
47167;SDS011;32931;47.778;17.806;2023-10-31T06:41:43;18.15;;;5.50;;
47167;SDS011;32931;47.778;17.806;2023-10-31T06:44:10;10.80;;;5.38;;
47167;SDS011;32931;47.778;17.806;2023-10-31T06:46:36;19.27;;;5.35;;
47167;SDS011;32931;47.778;17.806;2023-10-31T06:49:02;15.18;;;5.10;;
47167;SDS011;32931;47.778;17.806;2023-10-31T06:51:28;18.30;;;5.03;;
47167;SDS011;32931;47.778;17.806;2023-10-31T06:53:54;13.48;;;4.70;;
47167;SDS011;32931;47.778;17.806;2023-10-31T06:56:20;14.02;;;4.75;;
47167;SDS011;32931;47.778;17.806;2023-10-31T06:58:46;13.48;;;4.90;;
47167;SDS011;32931;47.778;17.806;2023-10-31T07:01:13;15.02;;;5.20;;
47167;SDS011;32931;47.778;17.806;2023-10-31T07:03:43;25.13;;;5.55;;
47167;SDS011;32931;47.778;17.806;2023-10-31T07:06:09;24.63;;;6.18;;
47167;SDS011;32931;47.778;17.806;2023-10-31T07:08:36;25.88;;;6.15;;
47167;SDS011;32931;47.778;17.806;2023-10-31T07:11:02;24.45;;;5.57;;
47167;SDS011;32931;47.778;17.806;2023-10-31T07:13:28;20.27;;;5.70;;
47167;SDS011;32931;47.778;17.806;2023-10-31T07:15:56;21.15;;;5.55;;
47167;SDS011;32931;47.778;17.806;2023-10-31T07:18:22;27.88;;;6.03;;
47167;SDS011;32931;47.778;17.806;2023-10-31T07:20:48;24.65;;;5.57;;
47167;SDS011;32931;47.778;17.806;2023-10-31T07:23:14;18.83;;;5.72;;
47167;SDS011;32931;47.778;17.806;2023-10-31T07:25:40;15.00;;;5.35;;
47167;SDS011;32931;47.778;17.806;2023-10-31T07:28:07;16.48;;;5.43;;
47167;SDS011;32931;47.778;17.806;2023-10-31T07:30:33;18.65;;;5.18;;
47167;SDS011;32931;47.778;17.806;2023-10-31T07:32:59;19.05;;;5.63;;
47167;SDS011;32931;47.778;17.806;2023-10-31T07:35:25;19.20;;;5.13;;
47167;SDS011;32931;47.778;17.806;2023-10-31T07:37:51;19.85;;;5.47;;
47167;SDS011;32931;47.778;17.806;2023-10-31T07:40:17;15.05;;;4.50;;
47167;SDS011;32931;47.778;17.806;2023-10-31T07:42:43;13.13;;;4.38;;
47167;SDS011;32931;47.778;17.806;2023-10-31T07:45:09;17.75;;;4.93;;
47167;SDS011;32931;47.778;17.806;2023-10-31T07:47:36;17.30;;;5.28;;
47167;SDS011;32931;47.778;17.806;2023-10-31T07:50:03;13.13;;;5.00;;
47167;SDS011;32931;47.778;17.806;2023-10-31T07:52:30;14.10;;;4.70;;
47167;SDS011;32931;47.778;17.806;2023-10-31T07:54:56;12.82;;;4.22;;
47167;SDS011;32931;47.778;17.806;2023-10-31T07:57:23;16.73;;;4.63;;
47167;SDS011;32931;47.778;17.806;2023-10-31T07:59:49;11.55;;;4.70;;
47167;SDS011;32931;47.778;17.806;2023-10-31T08:02:15;14.07;;;4.50;;
47167;SDS011;32931;47.778;17.806;2023-10-31T08:04:41;17.95;;;5.03;;
47167;SDS011;32931;47.778;17.806;2023-10-31T08:07:07;20.75;;;4.47;;
47167;SDS011;32931;47.778;17.806;2023-10-31T08:09:33;28.27;;;5.60;;
47167;SDS011;32931;47.778;17.806;2023-10-31T08:12:00;27.58;;;5.80;;
47167;SDS011;32931;47.778;17.806;2023-10-31T08:14:26;28.02;;;4.93;;
47167;SDS011;32931;47.778;17.806;2023-10-31T08:16:52;26.33;;;5.35;;
47167;SDS011;32931;47.778;17.806;2023-10-31T08:19:18;18.25;;;5.00;;
47167;SDS011;32931;47.778;17.806;2023-10-31T08:21:44;10.98;;;4.68;;
47167;SDS011;32931;47.778;17.806;2023-10-31T08:24:10;15.10;;;4.78;;
47167;SDS011;32931;47.778;17.806;2023-10-31T08:26:39;17.08;;;4.55;;
47167;SDS011;32931;47.778;17.806;2023-10-31T08:29:05;15.70;;;4.80;;
47167;SDS011;32931;47.778;17.806;2023-10-31T08:31:31;15.48;;;4.47;;
47167;SDS011;32931;47.778;17.806;2023-10-31T08:33:57;12.88;;;4.78;;
47167;SDS011;32931;47.778;17.806;2023-10-31T08:36:23;17.40;;;4.00;;
47167;SDS011;32931;47.778;17.806;2023-10-31T08:38:49;12.15;;;4.40;;
47167;SDS011;32931;47.778;17.806;2023-10-31T08:41:15;14.32;;;4.30;;
47167;SDS011;32931;47.778;17.806;2023-10-31T08:43:46;9.30;;;4.07;;
47167;SDS011;32931;47.778;17.806;2023-10-31T08:46:12;13.77;;;4.32;;
47167;SDS011;32931;47.778;17.806;2023-10-31T08:48:39;15.27;;;4.28;;
47167;SDS011;32931;47.778;17.806;2023-10-31T08:51:05;11.57;;;4.32;;
47167;SDS011;32931;47.778;17.806;2023-10-31T08:53:31;23.42;;;4.55;;
47167;SDS011;32931;47.778;17.806;2023-10-31T08:55:57;12.60;;;3.70;;
47167;SDS011;32931;47.778;17.806;2023-10-31T08:58:23;11.63;;;4.57;;
47167;SDS011;32931;47.778;17.806;2023-10-31T09:00:49;13.27;;;4.07;;
47167;SDS011;32931;47.778;17.806;2023-10-31T09:03:15;15.48;;;4.10;;
47167;SDS011;32931;47.778;17.806;2023-10-31T09:05:41;17.50;;;3.85;;
47167;SDS011;32931;47.778;17.806;2023-10-31T09:08:08;8.13;;;3.95;;
47167;SDS011;32931;47.778;17.806;2023-10-31T09:10:36;8.13;;;3.13;;
47167;SDS011;32931;47.778;17.806;2023-10-31T09:13:06;9.40;;;2.03;;
47167;SDS011;32931;47.778;17.806;2023-10-31T09:15:32;6.35;;;2.03;;
47167;SDS011;32931;47.778;17.806;2023-10-31T09:17:59;8.98;;;2.17;;
47167;SDS011;32931;47.778;17.806;2023-10-31T09:20:25;6.78;;;2.00;;
47167;SDS011;32931;47.778;17.806;2023-10-31T09:22:51;13.30;;;1.85;;
47167;SDS011;32931;47.778;17.806;2023-10-31T09:25:18;9.45;;;1.63;;
47167;SDS011;32931;47.778;17.806;2023-10-31T09:27:44;8.38;;;1.65;;
47167;SDS011;32931;47.778;17.806;2023-10-31T09:30:10;6.07;;;1.45;;
47167;SDS011;32931;47.778;17.806;2023-10-31T09:32:36;4.75;;;1.42;;
47167;SDS011;32931;47.778;17.806;2023-10-31T09:35:02;3.65;;;1.30;;
47167;SDS011;32931;47.778;17.806;2023-10-31T09:37:29;1.50;;;0.85;;
47167;SDS011;32931;47.778;17.806;2023-10-31T09:39:55;5.20;;;1.00;;
47167;SDS011;32931;47.778;17.806;2023-10-31T09:42:21;4.97;;;0.80;;
47167;SDS011;32931;47.778;17.806;2023-10-31T09:44:47;4.40;;;0.90;;
47167;SDS011;32931;47.778;17.806;2023-10-31T09:47:13;4.20;;;0.90;;
47167;SDS011;32931;47.778;17.806;2023-10-31T09:49:41;1.25;;;0.70;;
47167;SDS011;32931;47.778;17.806;2023-10-31T09:52:07;1.77;;;0.73;;
47167;SDS011;32931;47.778;17.806;2023-10-31T09:54:33;4.78;;;0.70;;
47167;SDS011;32931;47.778;17.806;2023-10-31T09:57:01;3.63;;;0.60;;
47167;SDS011;32931;47.778;17.806;2023-10-31T09:59:27;0.73;;;0.60;;
47167;SDS011;32931;47.778;17.806;2023-10-31T10:01:54;6.28;;;0.95;;
47167;SDS011;32931;47.778;17.806;2023-10-31T10:04:20;0.60;;;0.50;;
47167;SDS011;32931;47.778;17.806;2023-10-31T10:06:59;0.38;;;0.30;;
47167;SDS011;32931;47.778;17.806;2023-10-31T10:09:27;1.55;;;0.50;;
47167;SDS011;32931;47.778;17.806;2023-10-31T10:11:53;0.60;;;0.40;;
47167;SDS011;32931;47.778;17.806;2023-10-31T10:14:22;0.85;;;0.30;;
47167;SDS011;32931;47.778;17.806;2023-10-31T10:16:49;2.38;;;0.30;;
47167;SDS011;32931;47.778;17.806;2023-10-31T10:19:15;2.10;;;0.30;;
47167;SDS011;32931;47.778;17.806;2023-10-31T10:21:54;0.60;;;0.30;;
47167;SDS011;32931;47.778;17.806;2023-10-31T10:24:22;1.08;;;0.32;;
47167;SDS011;32931;47.778;17.806;2023-10-31T10:26:50;3.92;;;0.30;;
47167;SDS011;32931;47.778;17.806;2023-10-31T10:29:17;0.57;;;0.28;;
47167;SDS011;32931;47.778;17.806;2023-10-31T10:31:43;1.80;;;0.40;;
47167;SDS011;32931;47.778;17.806;2023-10-31T10:34:16;0.93;;;0.50;;
47167;SDS011;32931;47.778;17.806;2023-10-31T10:36:44;0.60;;;0.40;;
47167;SDS011;32931;47.778;17.806;2023-10-31T10:39:16;4.15;;;0.50;;
47167;SDS011;32931;47.778;17.806;2023-10-31T10:41:46;3.47;;;0.60;;
47167;SDS011;32931;47.778;17.806;2023-10-31T10:44:19;2.83;;;0.47;;
47167;SDS011;32931;47.778;17.806;2023-10-31T10:47:01;1.88;;;0.50;;
47167;SDS011;32931;47.778;17.806;2023-10-31T10:49:29;1.88;;;0.60;;
47167;SDS011;32931;47.778;17.806;2023-10-31T10:52:01;1.13;;;0.50;;
47167;SDS011;32931;47.778;17.806;2023-10-31T10:54:52;3.40;;;0.40;;
47167;SDS011;32931;47.778;17.806;2023-10-31T10:57:32;2.85;;;0.45;;
47167;SDS011;32931;47.778;17.806;2023-10-31T11:00:08;2.40;;;0.68;;
47167;SDS011;32931;47.778;17.806;2023-10-31T11:02:41;1.15;;;0.50;;
47167;SDS011;32931;47.778;17.806;2023-10-31T11:05:09;0.75;;;0.38;;
47167;SDS011;32931;47.778;17.806;2023-10-31T11:07:38;3.47;;;0.47;;
47167;SDS011;32931;47.778;17.806;2023-10-31T11:10:05;1.30;;;0.68;;
47167;SDS011;32931;47.778;17.806;2023-10-31T11:12:32;4.43;;;0.50;;
47167;SDS011;32931;47.778;17.806;2023-10-31T11:14:59;2.30;;;0.65;;
47167;SDS011;32931;47.778;17.806;2023-10-31T11:17:29;1.98;;;0.60;;
47167;SDS011;32931;47.778;17.806;2023-10-31T11:19:57;9.60;;;0.80;;
47167;SDS011;32931;47.778;17.806;2023-10-31T11:22:24;8.13;;;1.02;;
47167;SDS011;32931;47.778;17.806;2023-10-31T11:24:50;5.03;;;1.10;;
47167;SDS011;32931;47.778;17.806;2023-10-31T11:27:17;2.47;;;0.70;;
47167;SDS011;32931;47.778;17.806;2023-10-31T11:29:44;6.47;;;1.17;;
47167;SDS011;32931;47.778;17.806;2023-10-31T11:32:10;4.43;;;1.10;;
47167;SDS011;32931;47.778;17.806;2023-10-31T11:34:38;12.35;;;1.48;;
47167;SDS011;32931;47.778;17.806;2023-10-31T11:37:26;9.80;;;1.88;;
47167;SDS011;32931;47.778;17.806;2023-10-31T11:40:39;13.15;;;1.65;;
47167;SDS011;32931;47.778;17.806;2023-10-31T11:42:51;15.57;;;2.15;;
47167;SDS011;32931;47.778;17.806;2023-10-31T11:45:25;6.22;;;1.75;;
47167;SDS011;32931;47.778;17.806;2023-10-31T11:47:53;10.60;;;1.80;;
47167;SDS011;32931;47.778;17.806;2023-10-31T11:50:21;9.05;;;1.70;;
47167;SDS011;32931;47.778;17.806;2023-10-31T11:53:00;9.23;;;2.10;;
47167;SDS011;32931;47.778;17.806;2023-10-31T11:55:28;7.65;;;1.90;;
47167;SDS011;32931;47.778;17.806;2023-10-31T11:57:54;5.00;;;1.70;;
47167;SDS011;32931;47.778;17.806;2023-10-31T12:00:21;8.65;;;2.08;;
47167;SDS011;32931;47.778;17.806;2023-10-31T12:02:58;4.78;;;1.25;;
47167;SDS011;32931;47.778;17.806;2023-10-31T12:05:27;1.45;;;0.90;;
47167;SDS011;32931;47.778;17.806;2023-10-31T12:07:55;5.15;;;1.13;;
47167;SDS011;32931;47.778;17.806;2023-10-31T12:10:23;4.18;;;1.10;;
47167;SDS011;32931;47.778;17.806;2023-10-31T12:12:50;3.65;;;1.08;;
47167;SDS011;32931;47.778;17.806;2023-10-31T12:15:17;4.80;;;1.30;;
47167;SDS011;32931;47.778;17.806;2023-10-31T12:17:43;3.60;;;1.33;;
47167;SDS011;32931;47.778;17.806;2023-10-31T12:20:09;4.85;;;1.33;;
47167;SDS011;32931;47.778;17.806;2023-10-31T12:22:36;7.78;;;1.63;;
47167;SDS011;32931;47.778;17.806;2023-10-31T12:25:09;9.07;;;1.90;;
47167;SDS011;32931;47.778;17.806;2023-10-31T12:27:45;9.13;;;1.73;;
47167;SDS011;32931;47.778;17.806;2023-10-31T12:30:16;10.02;;;1.73;;
47167;SDS011;32931;47.778;17.806;2023-10-31T12:32:44;6.57;;;2.05;;
47167;SDS011;32931;47.778;17.806;2023-10-31T12:35:14;5.70;;;1.40;;
47167;SDS011;32931;47.778;17.806;2023-10-31T12:37:45;8.80;;;1.95;;
47167;SDS011;32931;47.778;17.806;2023-10-31T12:40:13;15.95;;;2.55;;
47167;SDS011;32931;47.778;17.806;2023-10-31T12:42:44;6.88;;;2.30;;
47167;SDS011;32931;47.778;17.806;2023-10-31T12:45:12;9.82;;;1.75;;
47167;SDS011;32931;47.778;17.806;2023-10-31T12:47:38;4.93;;;1.80;;
47167;SDS011;32931;47.778;17.806;2023-10-31T12:50:23;3.17;;;1.60;;
47167;SDS011;32931;47.778;17.806;2023-10-31T12:52:50;4.20;;;1.88;;
47167;SDS011;32931;47.778;17.806;2023-10-31T12:55:21;8.50;;;1.58;;
47167;SDS011;32931;47.778;17.806;2023-10-31T12:57:48;2.47;;;1.20;;
47167;SDS011;32931;47.778;17.806;2023-10-31T13:00:16;5.03;;;1.75;;
47167;SDS011;32931;47.778;17.806;2023-10-31T13:02:50;3.70;;;1.33;;
47167;SDS011;32931;47.778;17.806;2023-10-31T13:05:18;8.05;;;1.48;;
47167;SDS011;32931;47.778;17.806;2023-10-31T13:07:50;2.85;;;1.20;;
47167;SDS011;32931;47.778;17.806;2023-10-31T13:10:18;6.15;;;1.55;;
47167;SDS011;32931;47.778;17.806;2023-10-31T13:12:45;4.50;;;1.40;;
47167;SDS011;32931;47.778;17.806;2023-10-31T13:15:12;11.52;;;1.73;;
47167;SDS011;32931;47.778;17.806;2023-10-31T13:17:40;3.25;;;1.40;;
47167;SDS011;32931;47.778;17.806;2023-10-31T13:20:09;5.80;;;1.30;;
47167;SDS011;32931;47.778;17.806;2023-10-31T13:22:41;6.70;;;1.33;;
47167;SDS011;32931;47.778;17.806;2023-10-31T13:25:08;2.97;;;1.00;;
47167;SDS011;32931;47.778;17.806;2023-10-31T13:27:36;2.90;;;1.10;;
47167;SDS011;32931;47.778;17.806;2023-10-31T13:30:04;4.53;;;1.23;;
47167;SDS011;32931;47.778;17.806;2023-10-31T13:32:30;5.07;;;1.15;;
47167;SDS011;32931;47.778;17.806;2023-10-31T13:34:57;3.15;;;1.10;;
47167;SDS011;32931;47.778;17.806;2023-10-31T13:37:23;4.32;;;1.10;;
47167;SDS011;32931;47.778;17.806;2023-10-31T13:39:49;1.83;;;0.90;;
47167;SDS011;32931;47.778;17.806;2023-10-31T13:42:17;1.98;;;0.88;;
47167;SDS011;32931;47.778;17.806;2023-10-31T13:44:43;4.55;;;0.80;;
47167;SDS011;32931;47.778;17.806;2023-10-31T13:47:09;12.25;;;1.00;;
47167;SDS011;32931;47.778;17.806;2023-10-31T13:49:36;4.00;;;1.00;;
47167;SDS011;32931;47.778;17.806;2023-10-31T13:52:03;1.40;;;0.70;;
47167;SDS011;32931;47.778;17.806;2023-10-31T13:54:30;1.85;;;0.70;;
47167;SDS011;32931;47.778;17.806;2023-10-31T13:56:57;2.63;;;0.60;;
47167;SDS011;32931;47.778;17.806;2023-10-31T13:59:24;1.20;;;0.57;;
47167;SDS011;32931;47.778;17.806;2023-10-31T14:01:50;3.10;;;0.88;;
47167;SDS011;32931;47.778;17.806;2023-10-31T14:04:17;2.15;;;0.70;;
47167;SDS011;32931;47.778;17.806;2023-10-31T14:06:44;7.22;;;1.02;;
47167;SDS011;32931;47.778;17.806;2023-10-31T14:09:11;1.95;;;0.73;;
47167;SDS011;32931;47.778;17.806;2023-10-31T14:11:38;4.70;;;0.90;;
47167;SDS011;32931;47.778;17.806;2023-10-31T14:14:05;2.60;;;0.80;;
47167;SDS011;32931;47.778;17.806;2023-10-31T14:16:32;5.45;;;1.00;;
47167;SDS011;32931;47.778;17.806;2023-10-31T14:18:59;2.08;;;0.80;;
47167;SDS011;32931;47.778;17.806;2023-10-31T14:21:25;2.50;;;0.80;;
47167;SDS011;32931;47.778;17.806;2023-10-31T14:23:51;2.00;;;0.73;;
47167;SDS011;32931;47.778;17.806;2023-10-31T14:26:20;5.18;;;0.73;;